Time;durP1;ratioP1;P1;durP2;ratioP2;P2;SDS_P1;SDS_P2;PMS_P1;PMS_P2;Temp;Humidity;BMP_temperature;BMP_pressure;BME280_temperature;BME280_humidity;BME280_pressure;Samples;Min_cycle;Max_cycle;Signal;HPM_P1;HPM_P2
2023/07/25 00:00:09;;;;;;;8.10;2.58;;;13.40;99.90;;;;;;4973807;28;20258;-85
2023/07/25 00:02:35;;;;;;;7.90;2.92;;;13.30;99.90;;;;;;4957758;28;20046;-85
2023/07/25 00:05:01;;;;;;;11.68;4.53;;;13.30;99.90;;;;;;4973930;28;20042;-85
2023/07/25 00:07:27;;;;;;;9.02;2.95;;;13.30;99.90;;;;;;4973690;28;20056;-85
2023/07/25 00:09:53;;;;;;;8.70;2.83;;;13.30;99.90;;;;;;4973718;28;20042;-85
2023/07/25 00:12:18;;;;;;;7.97;3.05;;;13.20;99.90;;;;;;4973242;28;20426;-85
2023/07/25 00:14:44;;;;;;;12.15;3.10;;;13.20;99.90;;;;;;4974121;28;20049;-85
2023/07/25 00:17:09;;;;;;;10.93;4.50;;;13.20;99.90;;;;;;4957648;28;20042;-84
2023/07/25 00:19:35;;;;;;;6.90;2.40;;;13.20;99.90;;;;;;4973818;28;20504;-84
2023/07/25 00:22:01;;;;;;;10.68;2.70;;;13.20;99.90;;;;;;4957386;28;20041;-85
2023/07/25 00:24:26;;;;;;;8.07;2.50;;;13.20;99.90;;;;;;4973150;28;20093;-85
2023/07/25 00:26:52;;;;;;;9.65;2.53;;;13.20;99.90;;;;;;4957074;28;20050;-84
2023/07/25 00:29:17;;;;;;;8.02;2.65;;;13.10;99.90;;;;;;4957780;28;20046;-85
2023/07/25 00:31:43;;;;;;;13.15;4.93;;;13.10;99.90;;;;;;4973484;28;20038;-85
2023/07/25 00:34:08;;;;;;;11.20;4.75;;;13.10;99.90;;;;;;4973475;28;20511;-85
2023/07/25 00:36:34;;;;;;;9.82;3.05;;;13.10;99.90;;;;;;4957303;28;20044;-85
2023/07/25 00:39:00;;;;;;;6.70;2.47;;;13.10;99.90;;;;;;4973280;28;20073;-85
2023/07/25 00:41:25;;;;;;;9.73;2.67;;;13.00;99.90;;;;;;4973528;28;20081;-85
2023/07/25 00:43:51;;;;;;;6.78;2.70;;;12.90;99.90;;;;;;4957058;28;20504;-85
2023/07/25 00:46:20;;;;;;;7.45;3.17;;;12.90;99.90;;;;;;4973249;28;20089;-85
2023/07/25 00:48:46;;;;;;;10.73;4.57;;;12.90;99.90;;;;;;4957893;28;20403;-85
2023/07/25 00:51:12;;;;;;;7.10;2.42;;;12.90;99.90;;;;;;4957216;28;20039;-85
2023/07/25 00:53:38;;;;;;;11.40;5.25;;;12.90;99.90;;;;;;4975748;28;20052;-85
2023/07/25 00:56:05;;;;;;;7.03;2.50;;;12.90;99.90;;;;;;4960743;28;20035;-85
2023/07/25 00:58:31;;;;;;;9.05;2.42;;;12.90;99.90;;;;;;4976902;28;20125;-85
2023/07/25 01:01:07;;;;;;;6.80;2.40;;;12.80;99.90;;;;;;4960319;28;20538;-85
2023/07/25 01:03:34;;;;;;;10.80;4.93;;;12.80;99.90;;;;;;4960379;28;20048;-85
2023/07/25 01:06:03;;;;;;;12.00;3.38;;;12.80;99.90;;;;;;4959878;28;20559;-85
2023/07/25 01:08:28;;;;;;;8.68;2.55;;;12.80;99.90;;;;;;4960597;28;20557;-85
2023/07/25 01:10:54;;;;;;;9.20;2.58;;;12.70;99.90;;;;;;4960443;28;20042;-85
2023/07/25 01:13:20;;;;;;;9.95;4.80;;;12.70;99.90;;;;;;4976794;28;20049;-85
2023/07/25 01:15:50;;;;;;;10.65;2.75;;;12.70;99.90;;;;;;4960682;28;20385;-85
2023/07/25 01:18:16;;;;;;;12.85;2.65;;;12.70;99.90;;;;;;4976388;28;20385;-85
2023/07/25 01:20:42;;;;;;;12.82;5.32;;;12.60;99.90;;;;;;4976354;28;20050;-85
2023/07/25 01:23:10;;;;;;;9.25;2.60;;;12.60;99.90;;;;;;4976179;28;20045;-85
2023/07/25 01:25:36;;;;;;;8.50;2.38;;;12.60;99.90;;;;;;4976049;28;20121;-85
2023/07/25 01:28:02;;;;;;;7.32;2.33;;;12.50;99.90;;;;;;4976362;28;20483;-85
2023/07/25 01:30:30;;;;;;;10.52;3.03;;;12.50;99.90;;;;;;4960390;28;20086;-85
2023/07/25 01:32:56;;;;;;;8.20;2.58;;;12.40;99.90;;;;;;4959849;28;20046;-85
2023/07/25 01:35:22;;;;;;;5.93;2.30;;;12.40;99.90;;;;;;4960156;28;20089;-85
2023/07/25 01:37:48;;;;;;;6.78;2.28;;;12.30;99.90;;;;;;4975874;28;20036;-85
2023/07/25 01:40:14;;;;;;;10.98;4.78;;;12.30;99.90;;;;;;4976213;28;20406;-85
2023/07/25 01:42:39;;;;;;;9.85;2.90;;;12.30;99.90;;;;;;4976173;28;20092;-85
2023/07/25 01:45:05;;;;;;;11.43;5.18;;;12.30;99.90;;;;;;4975749;28;20046;-85
2023/07/25 01:47:31;;;;;;;8.38;2.92;;;12.30;99.90;;;;;;4975672;28;20125;-85
2023/07/25 01:49:57;;;;;;;11.48;5.25;;;12.20;99.90;;;;;;4976393;28;20133;-85
2023/07/25 01:52:23;;;;;;;7.63;3.22;;;12.30;99.90;;;;;;4975351;28;20046;-85
2023/07/25 01:54:49;;;;;;;10.38;2.40;;;12.20;99.90;;;;;;4976148;28;20053;-85
2023/07/25 01:57:15;;;;;;;11.68;5.82;;;12.10;99.90;;;;;;4959387;28;20092;-85
2023/07/25 01:59:41;;;;;;;5.78;2.30;;;12.10;99.90;;;;;;4966296;28;20034;-85
2023/07/25 02:02:06;;;;;;;7.13;3.03;;;12.00;99.90;;;;;;4994737;28;20042;-84
2023/07/25 02:04:32;;;;;;;7.70;2.60;;;12.00;99.90;;;;;;4994732;28;20076;-85
2023/07/25 02:06:58;;;;;;;7.72;2.50;;;11.90;99.90;;;;;;4978361;28;20044;-85
2023/07/25 02:09:23;;;;;;;8.57;2.50;;;11.90;99.90;;;;;;4995772;28;20034;-85
2023/07/25 02:11:49;;;;;;;8.10;2.78;;;11.80;99.90;;;;;;4978809;28;20060;-85
2023/07/25 02:14:14;;;;;;;8.80;2.45;;;11.80;99.90;;;;;;4995256;28;20436;-85
2023/07/25 02:16:40;;;;;;;7.85;2.83;;;11.70;99.90;;;;;;4978743;28;20033;-85
2023/07/25 02:19:06;;;;;;;6.70;2.78;;;11.60;99.90;;;;;;4994621;28;20045;-85
2023/07/25 02:21:32;;;;;;;11.00;5.72;;;11.60;99.90;;;;;;4978666;28;20129;-85
2023/07/25 02:23:58;;;;;;;8.13;2.55;;;11.60;99.90;;;;;;4994497;28;20092;-84
2023/07/25 02:26:23;;;;;;;8.45;2.90;;;11.60;99.90;;;;;;4978218;28;20463;-85
2023/07/25 02:28:49;;;;;;;9.98;3.40;;;11.60;99.90;;;;;;4978645;28;20060;-85
2023/07/25 02:31:14;;;;;;;6.30;2.30;;;11.60;99.90;;;;;;4994645;28;20117;-85
2023/07/25 02:33:40;;;;;;;6.55;2.50;;;11.60;99.90;;;;;;4978231;28;20494;-85
2023/07/25 02:36:06;;;;;;;12.48;2.70;;;11.50;99.90;;;;;;4994775;28;20042;-84
2023/07/25 02:38:32;;;;;;;8.07;2.88;;;11.60;99.90;;;;;;4978315;28;20037;-85
2023/07/25 02:40:57;;;;;;;16.05;3.53;;;11.60;99.90;;;;;;4994530;28;20077;-85
2023/07/25 02:43:23;;;;;;;9.43;3.58;;;11.60;99.90;;;;;;4978083;28;20084;-85
2023/07/25 02:45:50;;;;;;;8.60;3.17;;;11.60;99.90;;;;;;4993826;28;20053;-85
2023/07/25 02:48:16;;;;;;;6.25;2.42;;;11.60;99.90;;;;;;4994688;28;20038;-84
2023/07/25 02:50:42;;;;;;;10.15;3.63;;;11.70;99.90;;;;;;4978311;28;20078;-84
2023/07/25 02:53:07;;;;;;;8.77;3.20;;;11.70;99.90;;;;;;4978039;28;20080;-84
2023/07/25 02:55:33;;;;;;;9.70;2.72;;;11.70;99.90;;;;;;4978450;28;20077;-84
2023/07/25 02:57:59;;;;;;;8.00;2.95;;;11.70;99.90;;;;;;4977859;28;20045;-84
2023/07/25 03:00:24;;;;;;;11.90;2.95;;;11.70;99.90;;;;;;4977586;28;20137;-84
2023/07/25 03:02:50;;;;;;;8.95;3.10;;;11.70;99.90;;;;;;4978117;28;20046;-84
2023/07/25 03:05:16;;;;;;;9.82;3.67;;;11.70;99.90;;;;;;4994188;28;20064;-84
2023/07/25 03:07:42;;;;;;;5.82;2.67;;;11.70;99.90;;;;;;4993863;28;20038;-84
2023/07/25 03:10:08;;;;;;;7.97;3.22;;;11.70;99.90;;;;;;4994695;28;20091;-84
2023/07/25 03:12:34;;;;;;;9.63;2.95;;;11.70;99.90;;;;;;5009950;28;20046;-84
2023/07/25 03:15:00;;;;;;;12.07;3.92;;;11.70;99.90;;;;;;4993763;28;20044;-84
2023/07/25 03:17:26;;;;;;;9.90;2.72;;;11.70;99.90;;;;;;4977802;28;20121;-84
2023/07/25 03:19:51;;;;;;;13.18;3.38;;;11.80;99.90;;;;;;4994134;28;20169;-84
2023/07/25 03:22:18;;;;;;;12.23;5.82;;;11.80;99.90;;;;;;4994026;28;20411;-84
2023/07/25 03:24:44;;;;;;;7.57;3.13;;;11.90;99.90;;;;;;4993878;28;20045;-84
2023/07/25 03:27:10;;;;;;;6.80;2.33;;;11.90;99.90;;;;;;4993223;28;20132;-84
2023/07/25 03:29:36;;;;;;;5.85;2.20;;;11.80;99.90;;;;;;4977597;28;20495;-84
2023/07/25 03:32:01;;;;;;;10.10;5.40;;;11.80;99.90;;;;;;4977078;28;20034;-84
2023/07/25 03:34:27;;;;;;;8.15;2.53;;;11.90;99.90;;;;;;4993445;28;20088;-84
2023/07/25 03:36:53;;;;;;;9.93;2.88;;;12.00;99.90;;;;;;4976974;28;20513;-84
2023/07/25 03:39:19;;;;;;;10.95;3.22;;;11.90;99.90;;;;;;4977315;28;20092;-84
2023/07/25 03:41:45;;;;;;;14.93;2.83;;;11.90;99.90;;;;;;4993311;28;20686;-84
2023/07/25 03:44:17;;;;;;;12.20;5.88;;;11.90;99.90;;;;;;4977593;28;20125;-83
2023/07/25 03:46:43;;;;;;;7.18;2.50;;;12.00;99.90;;;;;;4976909;28;20044;-84
2023/07/25 03:49:08;;;;;;;7.20;2.03;;;12.00;99.90;;;;;;4993468;28;20045;-84
2023/07/25 03:51:36;;;;;;;8.73;3.03;;;12.00;99.90;;;;;;4993729;28;20045;-84
2023/07/25 03:54:02;;;;;;;7.50;2.55;;;11.90;99.90;;;;;;4993017;28;20419;-84
2023/07/25 03:56:28;;;;;;;9.30;3.47;;;12.00;99.90;;;;;;4976985;28;20034;-84
2023/07/25 03:58:54;;;;;;;8.73;2.80;;;12.00;99.90;;;;;;4977212;28;20045;-84
2023/07/25 04:01:19;;;;;;;8.20;2.90;;;12.00;99.90;;;;;;4992926;28;20049;-84
2023/07/25 04:03:45;;;;;;;9.50;3.10;;;12.00;99.90;;;;;;4993144;28;20100;-84
2023/07/25 04:06:10;;;;;;;12.10;5.90;;;12.00;99.90;;;;;;4992779;28;20428;-84
2023/07/25 04:08:36;;;;;;;9.23;2.78;;;12.10;99.90;;;;;;4977324;28;20077;-84
2023/07/25 04:11:02;;;;;;;8.35;2.78;;;12.10;99.90;;;;;;4993552;28;20494;-84
2023/07/25 04:13:27;;;;;;;11.23;2.58;;;12.10;99.90;;;;;;4993075;28;20049;-84
2023/07/25 04:15:53;;;;;;;7.25;2.90;;;12.10;99.90;;;;;;4992881;28;20038;-84
2023/07/25 04:18:18;;;;;;;8.48;2.67;;;12.10;99.90;;;;;;4993419;28;20076;-84
2023/07/25 04:20:44;;;;;;;9.00;2.50;;;12.10;99.90;;;;;;4976572;28;20033;-84
2023/07/25 04:23:11;;;;;;;12.82;6.32;;;12.00;99.90;;;;;;4977233;28;20047;-84
2023/07/25 04:25:36;;;;;;;8.30;2.50;;;12.10;99.90;;;;;;4992487;28;20494;-84
2023/07/25 04:28:02;;;;;;;7.90;2.70;;;12.10;99.90;;;;;;4978125;28;20045;-84
2023/07/25 04:30:28;;;;;;;12.88;4.00;;;12.10;99.90;;;;;;4981125;28;20069;-84
2023/07/25 04:32:53;;;;;;;7.88;3.42;;;12.10;99.90;;;;;;4996578;28;20594;-84
2023/07/25 04:35:19;;;;;;;11.77;3.08;;;12.10;99.90;;;;;;4980714;28;20494;-84
2023/07/25 04:37:44;;;;;;;15.15;3.80;;;12.10;99.90;;;;;;4997069;28;20038;-84
2023/07/25 04:40:11;;;;;;;15.75;3.58;;;12.10;99.90;;;;;;4996539;28;20037;-84
2023/07/25 04:42:36;;;;;;;10.00;3.17;;;12.20;99.90;;;;;;4996728;28;20038;-84
2023/07/25 04:45:03;;;;;;;7.93;3.00;;;12.20;99.90;;;;;;4996678;28;20088;-84
2023/07/25 04:47:29;;;;;;;9.73;3.17;;;12.30;99.90;;;;;;4979974;28;20042;-84
2023/07/25 04:49:54;;;;;;;12.18;6.45;;;12.30;99.90;;;;;;4980292;28;20048;-84
2023/07/25 04:52:20;;;;;;;7.90;2.83;;;12.40;99.90;;;;;;4996440;28;20053;-84
2023/07/25 04:54:46;;;;;;;14.93;7.07;;;12.40;99.90;;;;;;4996012;28;20038;-84
2023/07/25 04:57:11;;;;;;;9.27;3.35;;;12.50;99.90;;;;;;4996318;28;20065;-84
2023/07/25 04:59:37;;;;;;;11.45;3.55;;;12.50;99.90;;;;;;4996078;28;20038;-84
2023/07/25 05:02:03;;;;;;;10.23;3.25;;;12.50;99.90;;;;;;4995032;28;20410;-84
2023/07/25 05:04:28;;;;;;;17.77;4.07;;;12.60;99.90;;;;;;4995946;28;20459;-84
2023/07/25 05:06:54;;;;;;;13.15;3.83;;;12.60;99.90;;;;;;4979412;28;20042;-84
2023/07/25 05:09:20;;;;;;;12.18;6.68;;;12.60;99.90;;;;;;4996289;28;20057;-84
2023/07/25 05:11:51;;;;;;;14.75;7.32;;;12.70;99.90;;;;;;4979839;28;20042;-84
2023/07/25 05:14:17;;;;;;;9.73;3.72;;;12.90;99.90;;;;;;4995702;28;20526;-85
2023/07/25 05:16:43;;;;;;;14.23;6.28;;;12.90;99.90;;;;;;4995561;28;20048;-84
2023/07/25 05:19:08;;;;;;;8.98;3.13;;;12.90;99.90;;;;;;4996356;28;20034;-84
2023/07/25 05:21:34;;;;;;;12.90;6.47;;;13.00;99.90;;;;;;4996101;28;20033;-84
2023/07/25 05:24:00;;;;;;;8.10;2.85;;;13.00;99.90;;;;;;4995791;28;20494;-84
2023/07/25 05:26:25;;;;;;;12.45;6.65;;;13.10;99.90;;;;;;4979143;28;20124;-85
2023/07/25 05:28:51;;;;;;;9.15;3.38;;;13.20;99.90;;;;;;4979324;28;20081;-85
2023/07/25 05:31:17;;;;;;;9.68;2.97;;;13.20;99.90;;;;;;4979488;28;20515;-85
2023/07/25 05:33:43;;;;;;;13.85;6.85;;;13.20;99.90;;;;;;4995555;28;20041;-85
2023/07/25 05:36:08;;;;;;;8.90;3.28;;;13.30;99.90;;;;;;4995288;28;20530;-84
2023/07/25 05:38:34;;;;;;;11.25;3.53;;;13.30;99.90;;;;;;4979107;28;20417;-85
2023/07/25 05:40:59;;;;;;;8.90;3.33;;;13.20;99.90;;;;;;4995244;28;20065;-85
2023/07/25 05:43:25;;;;;;;15.82;3.97;;;13.30;99.90;;;;;;4995645;28;20454;-85
2023/07/25 05:45:51;;;;;;;11.68;4.13;;;13.30;99.90;;;;;;4994734;28;20049;-84
2023/07/25 05:48:16;;;;;;;8.85;3.95;;;13.30;99.90;;;;;;4994994;28;20053;-84
2023/07/25 05:50:42;;;;;;;12.38;4.85;;;13.40;99.90;;;;;;4995836;28;20127;-84
2023/07/25 05:53:08;;;;;;;9.55;3.42;;;13.40;99.90;;;;;;4978692;28;20483;-85
2023/07/25 05:55:33;;;;;;;8.65;3.60;;;13.40;99.90;;;;;;4995471;28;20117;-84
2023/07/25 05:57:59;;;;;;;12.00;6.22;;;13.50;99.90;;;;;;4995186;28;20487;-84
2023/07/25 06:00:25;;;;;;;8.45;3.38;;;13.50;99.90;;;;;;4977883;28;20041;-84
2023/07/25 06:02:51;;;;;;;13.30;6.55;;;13.60;99.90;;;;;;4995233;28;20034;-84
2023/07/25 06:05:17;;;;;;;9.63;2.97;;;13.70;99.90;;;;;;4978789;28;20072;-84
2023/07/25 06:07:42;;;;;;;11.77;5.85;;;13.70;99.90;;;;;;4978476;28;20487;-85
2023/07/25 06:10:08;;;;;;;10.88;5.25;;;13.80;99.90;;;;;;4995260;28;20077;-84
2023/07/25 06:12:34;;;;;;;8.82;2.88;;;13.90;99.90;;;;;;4989644;28;20549;-82
2023/07/25 06:14:59;;;;;;;12.82;4.85;;;13.90;99.90;;;;;;4959715;28;20112;-84
2023/07/25 06:17:25;;;;;;;10.00;4.40;;;14.00;99.90;;;;;;4975810;28;20044;-84
2023/07/25 06:19:51;;;;;;;11.45;2.88;;;14.10;99.90;;;;;;4959962;28;20038;-84
2023/07/25 06:22:16;;;;;;;12.18;4.57;;;14.20;99.90;;;;;;4981383;28;20400;-84
2023/07/25 06:24:42;;;;;;;11.68;3.70;;;14.30;99.90;;;;;;4994556;28;20125;-84
2023/07/25 06:27:07;;;;;;;12.82;4.32;;;14.40;99.90;;;;;;4993974;28;20034;-84
2023/07/25 06:29:33;;;;;;;12.68;4.25;;;14.50;99.90;;;;;;4994494;28;20096;-84
2023/07/25 06:31:59;;;;;;;11.93;3.63;;;14.60;99.90;;;;;;4978492;28;20168;-84
2023/07/25 06:34:24;;;;;;;5.25;2.08;;;14.70;99.90;;;;;;4994076;28;20072;-84
2023/07/25 06:36:50;;;;;;;8.02;2.63;;;14.70;99.90;;;;;;4978152;28;20411;-85
2023/07/25 06:39:15;;;;;;;14.20;3.58;;;14.70;99.90;;;;;;4993967;28;20076;-85
2023/07/25 06:41:41;;;;;;;8.50;2.03;;;14.80;99.90;;;;;;4994072;28;20039;-84
2023/07/25 06:44:07;;;;;;;11.82;3.30;;;14.80;99.90;;;;;;4978086;28;20049;-85
2023/07/25 06:46:32;;;;;;;9.30;2.58;;;14.90;99.90;;;;;;4977603;28;20048;-85
2023/07/25 06:48:58;;;;;;;9.05;2.05;;;15.00;99.90;;;;;;4977818;28;20042;-85
2023/07/25 06:51:23;;;;;;;10.25;2.60;;;15.00;99.90;;;;;;4977603;28;20038;-85
2023/07/25 06:53:49;;;;;;;10.60;2.75;;;15.10;99.90;;;;;;4977599;28;20052;-84
2023/07/25 06:56:15;;;;;;;10.63;2.17;;;15.20;99.90;;;;;;4993802;28;20037;-84
2023/07/25 06:58:40;;;;;;;10.25;2.60;;;15.30;99.90;;;;;;4994762;28;20042;-85
2023/07/25 07:01:06;;;;;;;11.80;2.75;;;15.30;99.90;;;;;;4993954;28;20044;-84
2023/07/25 07:03:32;;;;;;;9.35;2.42;;;15.50;99.90;;;;;;4977793;28;20501;-85
2023/07/25 07:05:58;;;;;;;9.27;1.58;;;15.60;99.90;;;;;;4993391;28;20038;-85
2023/07/25 07:08:24;;;;;;;13.88;2.53;;;15.60;99.90;;;;;;4977260;28;20072;-84
2023/07/25 07:10:53;;;;;;;5.57;1.40;;;15.70;99.90;;;;;;4994134;28;20081;-85
2023/07/25 07:13:20;;;;;;;12.10;2.78;;;15.70;99.90;;;;;;4993625;28;20038;-84
2023/07/25 07:15:46;;;;;;;6.80;1.60;;;15.80;99.90;;;;;;4977209;28;20044;-85
2023/07/25 07:18:12;;;;;;;9.57;2.35;;;15.80;99.90;;;;;;4977986;28;20049;-84
2023/07/25 07:20:37;;;;;;;8.73;1.63;;;15.90;99.90;;;;;;4993850;28;20033;-85
2023/07/25 07:23:03;;;;;;;8.82;2.55;;;15.90;99.90;;;;;;4977582;28;20557;-84
2023/07/25 07:25:29;;;;;;;9.02;2.40;;;16.00;99.90;;;;;;4993435;28;20501;-84
2023/07/25 07:27:54;;;;;;;11.60;2.50;;;16.00;99.90;;;;;;4977081;28;20041;-85
2023/07/25 07:30:20;;;;;;;8.82;2.13;;;16.10;99.90;;;;;;4993542;28;20081;-85
2023/07/25 07:32:47;;;;;;;10.25;2.10;;;16.20;99.90;;;;;;4993557;28;20411;-85
2023/07/25 07:35:12;;;;;;;7.80;1.63;;;16.30;99.90;;;;;;4993363;28;20120;-85
2023/07/25 07:37:38;;;;;;;9.23;2.42;;;16.30;99.90;;;;;;4993548;28;20124;-85
2023/07/25 07:40:04;;;;;;;8.73;1.52;;;16.40;99.90;;;;;;4993430;28;20045;-84
2023/07/25 07:42:30;;;;;;;7.43;1.80;;;16.50;99.90;;;;;;4993261;28;20041;-85
2023/07/25 07:44:56;;;;;;;9.40;1.80;;;16.50;99.90;;;;;;4993158;28;20084;-84
2023/07/25 07:47:21;;;;;;;10.18;2.30;;;16.50;99.90;;;;;;4992752;28;20034;-85
2023/07/25 07:49:47;;;;;;;8.32;2.05;;;16.40;99.90;;;;;;4977421;28;20205;-85
2023/07/25 07:52:12;;;;;;;3.80;1.15;;;16.40;99.90;;;;;;4993371;28;20503;-85
2023/07/25 07:54:38;;;;;;;8.68;2.05;;;16.40;99.90;;;;;;4976962;28;20048;-85
2023/07/25 07:57:04;;;;;;;9.93;2.10;;;16.50;99.90;;;;;;4993273;28;20550;-85
2023/07/25 07:59:30;;;;;;;9.05;1.70;;;16.60;99.90;;;;;;4977475;28;20068;-85
2023/07/25 08:01:55;;;;;;;8.18;2.20;;;16.70;99.90;;;;;;4994127;28;20707;-85
2023/07/25 08:04:21;;;;;;;7.78;1.35;;;16.70;99.90;;;;;;4981190;28;20042;-85
2023/07/25 08:06:47;;;;;;;7.63;1.60;;;16.80;99.90;;;;;;4980359;28;20040;-85
2023/07/25 08:09:13;;;;;;;8.95;1.63;;;16.90;99.90;;;;;;4997165;28;20046;-85
2023/07/25 08:11:38;;;;;;;5.82;1.10;;;17.00;99.90;;;;;;4981143;28;20052;-85
2023/07/25 08:14:04;;;;;;;8.25;1.42;;;17.00;99.90;;;;;;4995059;28;20038;-85
2023/07/25 08:16:29;;;;;;;5.75;1.20;;;17.00;99.90;;;;;;4986852;28;20521;-85
2023/07/25 08:18:55;;;;;;;4.03;1.02;;;17.00;99.90;;;;;;5003668;28;20034;-86
2023/07/25 08:21:21;;;;;;;7.55;1.40;;;16.90;99.90;;;;;;4987504;28;20046;-85
2023/07/25 08:23:46;;;;;;;5.97;1.40;;;17.00;99.90;;;;;;4987542;28;20045;-86
2023/07/25 08:26:12;;;;;;;6.25;1.52;;;17.10;99.90;;;;;;4987301;28;20374;-85
2023/07/25 08:28:37;;;;;;;7.55;1.30;;;17.10;99.90;;;;;;4985334;28;20368;-86
2023/07/25 08:31:07;;;;;;;9.27;1.60;;;17.10;99.90;;;;;;4970275;28;20046;-85
2023/07/25 08:33:34;;;;;;;5.45;1.17;;;17.20;99.90;;;;;;4987132;28;20046;-85
2023/07/25 08:36:00;;;;;;;7.38;1.20;;;17.30;99.90;;;;;;4985586;28;20117;-85
2023/07/25 08:38:27;;;;;;;2.97;0.98;;;17.30;99.90;;;;;;4970654;28;20123;-85
2023/07/25 08:41:12;;;;;;;8.20;1.60;;;17.30;99.90;;;;;;4987218;28;20057;-85
2023/07/25 08:43:39;;;;;;;7.10;1.38;;;17.40;99.90;;;;;;4988038;28;20060;-85
2023/07/25 08:46:08;;;;;;;5.80;1.20;;;17.50;99.90;;;;;;4986017;28;20042;-85
2023/07/25 08:48:39;;;;;;;5.53;0.98;;;17.60;99.90;;;;;;4987388;28;20046;-85
2023/07/25 08:51:16;;;;;;;5.10;1.42;;;17.70;99.90;;;;;;4987902;28;20049;-85
2023/07/25 08:53:58;;;;;;;7.20;1.35;;;17.70;99.90;;;;;;4985608;28;20131;-86
2023/07/25 08:56:25;;;;;;;6.32;1.52;;;17.80;99.90;;;;;;5001707;28;20042;-85
2023/07/25 08:58:52;;;;;;;7.03;1.60;;;17.80;99.90;;;;;;4996363;28;20042;-85
2023/07/25 09:01:18;;;;;;;6.18;1.33;;;17.90;99.90;;;;;;4996405;28;20041;-85
2023/07/25 09:03:45;;;;;;;6.70;1.27;;;18.00;99.90;;;;;;4996587;28;20096;-85
2023/07/25 09:06:12;;;;;;;8.50;1.40;;;18.00;99.90;;;;;;4995589;28;20049;-85
2023/07/25 09:08:39;;;;;;;6.00;1.20;;;18.10;99.90;;;;;;4961236;28;20042;-85
2023/07/25 09:11:07;;;;;;;8.02;1.60;;;18.10;99.90;;;;;;4977257;28;20044;-86
2023/07/25 09:13:33;;;;;;;4.40;1.38;;;18.10;99.90;;;;;;4975918;28;20536;-86
2023/07/25 09:15:59;;;;;;;7.75;1.42;;;18.10;99.90;;;;;;4975110;28;20524;-85
2023/07/25 09:18:24;;;;;;;7.15;1.50;;;18.10;99.90;;;;;;4976628;28;20459;-86
2023/07/25 09:20:50;;;;;;;7.55;1.52;;;18.20;99.90;;;;;;4976602;28;20125;-86
2023/07/25 09:23:21;;;;;;;8.40;1.50;;;18.30;99.90;;;;;;4975149;28;20045;-85
2023/07/25 09:25:47;;;;;;;6.85;1.55;;;18.40;99.90;;;;;;4976129;28;20057;-86
2023/07/25 09:28:13;;;;;;;6.75;1.33;;;18.50;99.90;;;;;;4976150;28;20052;-86
2023/07/25 09:30:46;;;;;;;8.70;2.42;;;18.60;99.90;;;;;;4976467;28;20038;-86
2023/07/25 09:33:25;;;;;;;6.72;1.58;;;18.70;99.90;;;;;;4976468;28;20381;-86
2023/07/25 09:35:51;;;;;;;7.32;1.40;;;18.70;99.90;;;;;;4991947;28;20447;-86
2023/07/25 09:38:17;;;;;;;6.07;1.35;;;18.70;99.90;;;;;;4976425;28;20528;-86
2023/07/25 09:40:42;;;;;;;5.07;1.17;;;18.70;99.90;;;;;;4960130;28;20044;-86
2023/07/25 09:43:08;;;;;;;8.73;1.50;;;18.70;99.90;;;;;;4976412;28;20089;-85
2023/07/25 09:45:37;;;;;;;5.20;1.15;;;18.70;99.90;;;;;;4975901;28;20508;-85
2023/07/25 09:48:03;;;;;;;6.22;1.40;;;18.60;99.90;;;;;;4975536;28;20035;-86
2023/07/25 09:50:35;;;;;;;6.93;1.80;;;18.60;99.90;;;;;;4959848;28;20448;-86
2023/07/25 09:53:02;;;;;;;6.88;1.50;;;18.70;99.90;;;;;;4976662;28;20042;-86
2023/07/25 09:55:27;;;;;;;5.78;1.30;;;18.80;99.90;;;;;;4975606;28;20038;-86
2023/07/25 09:57:53;;;;;;;7.43;1.27;;;18.80;99.90;;;;;;4979537;28;20474;-86
2023/07/25 10:00:19;;;;;;;3.75;1.08;;;18.80;99.90;;;;;;4985507;28;20038;-86
2023/07/25 10:02:45;;;;;;;6.32;1.30;;;18.90;99.90;;;;;;4985423;28;20562;-86
2023/07/25 10:05:11;;;;;;;6.53;1.23;;;18.90;99.90;;;;;;4984314;28;20423;-86
2023/07/25 10:07:38;;;;;;;11.57;1.85;;;18.90;99.90;;;;;;4989178;28;20125;-85
2023/07/25 10:10:04;;;;;;;7.35;1.27;;;18.80;99.90;;;;;;4994726;28;20038;-85
2023/07/25 10:12:29;;;;;;;7.72;1.50;;;18.90;99.90;;;;;;4994803;28;20041;-85
2023/07/25 10:14:56;;;;;;;4.35;0.90;;;18.90;99.70;;;;;;4994749;28;20037;-85
2023/07/25 10:17:24;;;;;;;6.38;1.23;;;18.90;94.60;;;;;;4994238;28;20038;-86
2023/07/25 10:19:54;;;;;;;5.80;1.20;;;18.90;92.00;;;;;;4994043;28;20124;-86
2023/07/25 10:22:37;;;;;;;7.32;1.35;;;18.90;93.00;;;;;;4994988;28;20042;-86
2023/07/25 10:25:09;;;;;;;6.68;1.20;;;19.10;99.80;;;;;;4977005;28;20034;-86
2023/07/25 10:27:34;;;;;;;6.00;1.13;;;19.30;99.90;;;;;;4994417;28;20045;-86
2023/07/25 10:30:03;;;;;;;6.18;1.10;;;19.40;96.70;;;;;;4977487;28;20583;-86
2023/07/25 10:32:45;;;;;;;6.10;1.15;;;19.40;93.40;;;;;;4993043;28;20044;-86
2023/07/25 10:35:11;;;;;;;4.45;1.00;;;19.40;93.40;;;;;;4976750;28;20092;-86
2023/07/25 10:37:43;;;;;;;6.57;1.45;;;19.50;95.30;;;;;;4992810;28;20038;-86
2023/07/25 10:40:17;;;;;;;5.00;0.93;;;19.60;95.10;;;;;;4993288;28;20589;-86
2023/07/25 10:42:50;;;;;;;3.30;0.80;;;19.60;89.60;;;;;;4992927;28;20620;-86
2023/07/25 10:45:28;;;;;;;6.40;1.30;;;19.70;87.40;;;;;;4993756;28;20073;-86
2023/07/25 10:47:59;;;;;;;5.25;1.05;;;19.80;82.80;;;;;;4994117;28;20457;-86
2023/07/25 10:50:43;;;;;;;6.75;1.17;;;19.80;85.30;;;;;;4978273;28;20034;-86
2023/07/25 10:53:20;;;;;;;4.88;1.10;;;19.90;86.60;;;;;;4987991;28;20045;-86
2023/07/25 10:56:04;;;;;;;4.07;0.82;;;19.90;87.40;;;;;;4977568;28;20044;-86
2023/07/25 10:58:56;;;;;;;4.75;1.00;;;20.00;87.80;;;;;;4978544;28;20399;-86
2023/07/25 11:01:36;;;;;;;4.95;1.02;;;20.20;88.30;;;;;;4977261;28;20037;-86
2023/07/25 11:04:21;;;;;;;6.68;1.42;;;20.40;84.50;;;;;;4994433;28;20050;-86
2023/07/25 11:06:48;;;;;;;4.70;1.35;;;20.40;82.40;;;;;;4994086;28;20144;-86
2023/07/25 11:09:15;;;;;;;5.78;1.25;;;20.40;83.50;;;;;;4977981;28;20061;-86
2023/07/25 11:11:45;;;;;;;5.63;1.00;;;20.40;81.70;;;;;;4994186;28;20054;-86
2023/07/25 11:14:15;;;;;;;4.28;1.00;;;20.40;78.90;;;;;;4993679;28;20045;-86
2023/07/25 11:16:42;;;;;;;4.10;0.80;;;20.40;79.30;;;;;;4990762;28;20088;-86
2023/07/25 11:19:09;;;;;;;5.28;1.30;;;20.30;79.40;;;;;;4977887;28;20518;-86
2023/07/25 11:21:39;;;;;;;5.30;1.35;;;20.30;81.40;;;;;;5010634;28;20091;-86
2023/07/25 11:24:06;;;;;;;6.30;1.27;;;20.30;82.60;;;;;;4974431;28;20092;-87
2023/07/25 11:26:32;;;;;;;6.13;1.45;;;20.30;83.00;;;;;;4966942;28;20034;-86
2023/07/25 11:29:03;;;;;;;6.07;1.42;;;20.30;84.30;;;;;;4967443;28;20294;-87
2023/07/25 11:31:29;;;;;;;6.53;1.50;;;20.40;85.20;;;;;;4985114;28;20454;-86
2023/07/25 11:33:54;;;;;;;6.13;1.40;;;20.60;84.70;;;;;;4983419;28;20057;-87
2023/07/25 11:36:22;;;;;;;6.60;1.30;;;20.80;87.40;;;;;;4982502;28;20053;-87
2023/07/25 11:38:48;;;;;;;8.10;1.50;;;20.90;90.10;;;;;;4985025;28;20037;-87
2023/07/25 11:41:13;;;;;;;9.13;2.03;;;21.10;88.40;;;;;;4983197;28;20470;-87
2023/07/25 11:43:39;;;;;;;5.70;1.13;;;21.10;85.60;;;;;;4983832;28;20038;-87
2023/07/25 11:46:05;;;;;;;7.50;1.23;;;21.20;85.20;;;;;;4984704;28;20111;-87
2023/07/25 11:48:31;;;;;;;5.97;1.10;;;21.30;84.00;;;;;;4984918;28;20049;-87
2023/07/25 11:50:57;;;;;;;5.88;1.25;;;21.20;80.40;;;;;;4968321;28;20069;-87
2023/07/25 11:53:26;;;;;;;3.35;1.05;;;21.30;80.70;;;;;;4967293;28;20046;-88
2023/07/25 11:55:53;;;;;;;4.70;1.17;;;21.40;82.10;;;;;;5012103;28;20050;-87
2023/07/25 11:58:20;;;;;;;4.47;1.20;;;21.50;77.50;;;;;;4966762;28;20414;-88
2023/07/25 12:00:51;;;;;;;5.05;0.98;;;21.50;76.10;;;;;;4990943;28;20164;-88
2023/07/25 12:03:25;;;;;;;5.40;1.10;;;21.60;77.50;;;;;;4990863;28;20052;-88
2023/07/25 12:05:53;;;;;;;4.40;1.13;;;21.80;75.70;;;;;;4974014;28;20038;-89
2023/07/25 12:08:42;;;;;;;5.45;1.10;;;22.00;77.00;;;;;;4990689;28;20042;-88
2023/07/25 12:11:13;;;;;;;6.30;1.30;;;22.20;76.80;;;;;;4974489;28;20044;-89
2023/07/25 12:13:54;;;;;;;4.93;1.20;;;22.20;76.60;;;;;;4974996;28;20041;-87
2023/07/25 12:16:23;;;;;;;5.18;1.17;;;22.30;76.60;;;;;;4990271;28;20052;-87
2023/07/25 12:18:52;;;;;;;3.92;1.00;;;22.50;75.70;;;;;;4974604;28;20084;-87
2023/07/25 12:21:35;;;;;;;4.50;1.15;;;22.70;73.20;;;;;;4974790;28;20552;-87
2023/07/25 12:24:04;;;;;;;5.00;1.10;;;22.80;75.00;;;;;;4990790;28;20077;-87
2023/07/25 12:26:42;;;;;;;4.95;1.15;;;23.00;74.30;;;;;;4990227;28;20107;-87
2023/07/25 12:29:12;;;;;;;5.68;1.20;;;23.10;71.20;;;;;;4990566;28;20333;-87
2023/07/25 12:31:38;;;;;;;4.47;1.00;;;23.20;72.10;;;;;;4990687;28;20054;-88
2023/07/25 12:34:04;;;;;;;3.70;0.90;;;23.20;70.90;;;;;;4990644;28;20060;-87
2023/07/25 12:36:30;;;;;;;4.63;1.15;;;23.20;71.10;;;;;;4990047;28;20038;-88
2023/07/25 12:38:55;;;;;;;6.00;1.30;;;23.10;71.10;;;;;;4990478;28;20462;-87
2023/07/25 12:41:22;;;;;;;5.22;1.05;;;23.00;70.70;;;;;;4975604;28;20042;-87